Terminal Aerodrome Forecast
Issued by NWS Tuscon, AZ

Home | Current Version | Previous Version | Text Only | Print | Product List | Glossary On
Versions: 1 2 3 4 5 6 7 8 9 10 11 12
071
FTUS45 KTWC 010546
TAFDUG
TAF
KDUG 010546Z 0106/0206 23010KT P6SM FEW120
     FM011000 16005KT P6SM FEW120
     FM011900 24012G22KT P6SM SCT120
     FM020300 34006KT P6SM FEW120=

USA.gov is the U.S. government's official web portal to all federal, state and local government web resources and services.